Cyrene, Missouri
Current Conditions -  °F | °C
As of 12:15 PM on Monday 24 Nov 2014 (Local Time) from KPPQ Reporting Station
Overcast Overcast  
Wind Chill: 25°   Ceiling: 2400
Heat Index: 35°   Visibility: 10mi
Dew Point: 28°   Wind: 17mph
Humidity: 77%   Direction: 250°WSW
Pressure: 29.65"   Gusts: 25mph
Location:  39.321°N, 91.1912°W
Report Text: KPPQ 241815Z AUTO 25015G22KT 10SM OVC024 02/M02 A2965 RMK AO2 T00161021
Loading
Personal Weather Stations






























Interactive Weather Map New forecast layout! Learn more

10-Day Weather Forecast

Advertisements
Track Severe Weather on mobile